sensor_id;sensor_type;location;lat;lon;timestamp;temperature;humidity
49379;DHT22;35254;47.990;-1.608;2023-08-31T00:02:10;22.70;63.50
49379;DHT22;35254;47.990;-1.608;2023-08-31T00:04:36;22.70;63.30
49379;DHT22;35254;47.990;-1.608;2023-08-31T00:07:02;22.70;62.20
49379;DHT22;35254;47.990;-1.608;2023-08-31T00:09:27;22.70;62.20
49379;DHT22;35254;47.990;-1.608;2023-08-31T00:11:54;22.70;62.70
49379;DHT22;35254;47.990;-1.608;2023-08-31T00:14:22;22.70;62.70
49379;DHT22;35254;47.990;-1.608;2023-08-31T00:16:47;22.70;62.30
49379;DHT22;35254;47.990;-1.608;2023-08-31T00:19:14;22.70;61.80
49379;DHT22;35254;47.990;-1.608;2023-08-31T00:21:40;22.70;62.40
49379;DHT22;35254;47.990;-1.608;2023-08-31T00:24:06;22.70;62.50
49379;DHT22;35254;47.990;-1.608;2023-08-31T00:26:33;22.70;62.20
49379;DHT22;35254;47.990;-1.608;2023-08-31T00:28:59;22.70;62.30
49379;DHT22;35254;47.990;-1.608;2023-08-31T00:31:25;22.70;62.40
49379;DHT22;35254;47.990;-1.608;2023-08-31T00:33:53;22.70;62.50
49379;DHT22;35254;47.990;-1.608;2023-08-31T00:36:18;22.70;62.50
49379;DHT22;35254;47.990;-1.608;2023-08-31T00:38:44;22.70;62.60
49379;DHT22;35254;47.990;-1.608;2023-08-31T00:41:10;22.70;62.50
49379;DHT22;35254;47.990;-1.608;2023-08-31T00:43:36;22.70;62.50
49379;DHT22;35254;47.990;-1.608;2023-08-31T00:46:02;22.60;62.70
49379;DHT22;35254;47.990;-1.608;2023-08-31T00:48:28;22.70;62.10
49379;DHT22;35254;47.990;-1.608;2023-08-31T00:50:54;22.60;61.90
49379;DHT22;35254;47.990;-1.608;2023-08-31T00:53:20;22.60;61.90
49379;DHT22;35254;47.990;-1.608;2023-08-31T00:55:46;22.60;61.60
49379;DHT22;35254;47.990;-1.608;2023-08-31T00:58:13;22.60;61.10
49379;DHT22;35254;47.990;-1.608;2023-08-31T01:08:50;22.60;60.60
49379;DHT22;35254;47.990;-1.608;2023-08-31T01:11:34;22.60;60.80
49379;DHT22;35254;47.990;-1.608;2023-08-31T01:14:12;22.60;60.50
49379;DHT22;35254;47.990;-1.608;2023-08-31T01:16:43;22.60;60.30
49379;DHT22;35254;47.990;-1.608;2023-08-31T01:21:45;22.60;60.30
49379;DHT22;35254;47.990;-1.608;2023-08-31T01:24:13;22.60;60.10
49379;DHT22;35254;47.990;-1.608;2023-08-31T01:26:40;22.60;60.10
49379;DHT22;35254;47.990;-1.608;2023-08-31T01:29:07;22.50;60.20
49379;DHT22;35254;47.990;-1.608;2023-08-31T01:31:32;22.60;59.90
49379;DHT22;35254;47.990;-1.608;2023-08-31T01:33:58;22.60;60.10
49379;DHT22;35254;47.990;-1.608;2023-08-31T01:36:29;22.60;59.80
49379;DHT22;35254;47.990;-1.608;2023-08-31T01:39:39;22.60;59.60
49379;DHT22;35254;47.990;-1.608;2023-08-31T01:42:11;22.60;59.40
49379;DHT22;35254;47.990;-1.608;2023-08-31T01:44:39;22.60;59.80
49379;DHT22;35254;47.990;-1.608;2023-08-31T01:47:06;22.60;59.60
49379;DHT22;35254;47.990;-1.608;2023-08-31T01:49:38;22.60;59.40
49379;DHT22;35254;47.990;-1.608;2023-08-31T01:52:05;22.60;59.70
49379;DHT22;35254;47.990;-1.608;2023-08-31T01:54:31;22.60;60.00
49379;DHT22;35254;47.990;-1.608;2023-08-31T01:56:57;22.60;60.20
49379;DHT22;35254;47.990;-1.608;2023-08-31T01:59:23;22.60;59.90
49379;DHT22;35254;47.990;-1.608;2023-08-31T02:01:48;22.60;59.90
49379;DHT22;35254;47.990;-1.608;2023-08-31T02:04:14;22.60;59.80
49379;DHT22;35254;47.990;-1.608;2023-08-31T02:06:40;22.50;59.70
49379;DHT22;35254;47.990;-1.608;2023-08-31T02:09:06;22.60;59.60
49379;DHT22;35254;47.990;-1.608;2023-08-31T02:11:31;22.60;59.90
49379;DHT22;35254;47.990;-1.608;2023-08-31T02:13:58;22.60;59.60
49379;DHT22;35254;47.990;-1.608;2023-08-31T02:16:23;22.60;59.50
49379;DHT22;35254;47.990;-1.608;2023-08-31T02:18:49;22.60;59.60
49379;DHT22;35254;47.990;-1.608;2023-08-31T02:21:15;22.50;59.40
49379;DHT22;35254;47.990;-1.608;2023-08-31T02:23:40;22.50;59.60
49379;DHT22;35254;47.990;-1.608;2023-08-31T02:26:06;22.60;60.10
49379;DHT22;35254;47.990;-1.608;2023-08-31T02:28:32;22.50;59.50
49379;DHT22;35254;47.990;-1.608;2023-08-31T02:31:01;22.50;59.40
49379;DHT22;35254;47.990;-1.608;2023-08-31T02:33:27;22.50;59.60
49379;DHT22;35254;47.990;-1.608;2023-08-31T02:35:54;22.50;59.60
49379;DHT22;35254;47.990;-1.608;2023-08-31T02:38:20;22.50;59.70
49379;DHT22;35254;47.990;-1.608;2023-08-31T02:40:47;22.50;59.70
49379;DHT22;35254;47.990;-1.608;2023-08-31T02:43:13;22.50;59.50
49379;DHT22;35254;47.990;-1.608;2023-08-31T02:45:39;22.50;59.70
49379;DHT22;35254;47.990;-1.608;2023-08-31T02:48:07;22.50;59.90
49379;DHT22;35254;47.990;-1.608;2023-08-31T02:50:34;22.50;59.70
49379;DHT22;35254;47.990;-1.608;2023-08-31T02:53:00;22.50;60.00
49379;DHT22;35254;47.990;-1.608;2023-08-31T02:55:26;22.50;60.00
49379;DHT22;35254;47.990;-1.608;2023-08-31T02:57:51;22.50;60.20
49379;DHT22;35254;47.990;-1.608;2023-08-31T03:00:17;22.50;60.10
49379;DHT22;35254;47.990;-1.608;2023-08-31T03:02:47;22.50;59.90
49379;DHT22;35254;47.990;-1.608;2023-08-31T03:05:13;22.50;59.70
49379;DHT22;35254;47.990;-1.608;2023-08-31T03:07:39;22.50;59.40
49379;DHT22;35254;47.990;-1.608;2023-08-31T03:10:05;22.50;59.40
49379;DHT22;35254;47.990;-1.608;2023-08-31T03:12:30;22.50;59.20
49379;DHT22;35254;47.990;-1.608;2023-08-31T03:14:56;22.50;59.30
49379;DHT22;35254;47.990;-1.608;2023-08-31T03:17:22;22.50;59.20
49379;DHT22;35254;47.990;-1.608;2023-08-31T03:19:47;22.50;59.30
49379;DHT22;35254;47.990;-1.608;2023-08-31T03:22:13;22.50;59.30
49379;DHT22;35254;47.990;-1.608;2023-08-31T03:24:39;22.50;59.20
49379;DHT22;35254;47.990;-1.608;2023-08-31T03:27:04;22.50;59.10
49379;DHT22;35254;47.990;-1.608;2023-08-31T03:29:30;22.50;59.30
49379;DHT22;35254;47.990;-1.608;2023-08-31T03:31:57;22.50;59.10
49379;DHT22;35254;47.990;-1.608;2023-08-31T03:34:23;22.50;59.30
49379;DHT22;35254;47.990;-1.608;2023-08-31T03:36:49;22.40;59.30
49379;DHT22;35254;47.990;-1.608;2023-08-31T03:39:15;22.40;59.30
49379;DHT22;35254;47.990;-1.608;2023-08-31T03:41:41;22.40;59.40
49379;DHT22;35254;47.990;-1.608;2023-08-31T03:44:07;22.40;59.40
49379;DHT22;35254;47.990;-1.608;2023-08-31T03:46:32;22.50;59.60
49379;DHT22;35254;47.990;-1.608;2023-08-31T03:48:58;22.50;59.50
49379;DHT22;35254;47.990;-1.608;2023-08-31T03:51:23;22.40;59.70
49379;DHT22;35254;47.990;-1.608;2023-08-31T03:53:49;22.50;59.60
49379;DHT22;35254;47.990;-1.608;2023-08-31T03:56:14;22.50;59.90
49379;DHT22;35254;47.990;-1.608;2023-08-31T03:58:40;22.40;59.70
49379;DHT22;35254;47.990;-1.608;2023-08-31T04:01:06;22.40;59.80
49379;DHT22;35254;47.990;-1.608;2023-08-31T04:03:31;22.50;59.80
49379;DHT22;35254;47.990;-1.608;2023-08-31T04:05:57;22.50;59.70
49379;DHT22;35254;47.990;-1.608;2023-08-31T04:08:23;22.50;59.70
49379;DHT22;35254;47.990;-1.608;2023-08-31T04:10:48;22.40;59.60
49379;DHT22;35254;47.990;-1.608;2023-08-31T04:13:14;22.50;59.80
49379;DHT22;35254;47.990;-1.608;2023-08-31T04:15:39;22.50;59.60
49379;DHT22;35254;47.990;-1.608;2023-08-31T04:18:05;22.50;59.60
49379;DHT22;35254;47.990;-1.608;2023-08-31T04:20:33;22.40;59.50
49379;DHT22;35254;47.990;-1.608;2023-08-31T04:22:58;22.50;59.50
49379;DHT22;35254;47.990;-1.608;2023-08-31T04:25:24;22.50;59.60
49379;DHT22;35254;47.990;-1.608;2023-08-31T04:27:50;22.50;59.60
49379;DHT22;35254;47.990;-1.608;2023-08-31T04:30:15;22.50;59.60
49379;DHT22;35254;47.990;-1.608;2023-08-31T04:32:41;22.40;59.50
49379;DHT22;35254;47.990;-1.608;2023-08-31T04:35:07;22.40;59.50
49379;DHT22;35254;47.990;-1.608;2023-08-31T04:37:33;22.50;59.60
49379;DHT22;35254;47.990;-1.608;2023-08-31T04:39:59;22.50;59.50
49379;DHT22;35254;47.990;-1.608;2023-08-31T04:42:24;22.40;59.50
49379;DHT22;35254;47.990;-1.608;2023-08-31T04:44:50;22.40;59.40
49379;DHT22;35254;47.990;-1.608;2023-08-31T04:47:16;22.40;59.50
49379;DHT22;35254;47.990;-1.608;2023-08-31T04:49:42;22.40;59.40
49379;DHT22;35254;47.990;-1.608;2023-08-31T04:52:08;22.40;59.40
49379;DHT22;35254;47.990;-1.608;2023-08-31T04:54:33;22.50;59.50
49379;DHT22;35254;47.990;-1.608;2023-08-31T04:56:59;22.40;59.60
49379;DHT22;35254;47.990;-1.608;2023-08-31T04:59:25;22.50;59.60
49379;DHT22;35254;47.990;-1.608;2023-08-31T05:01:50;22.40;59.60
49379;DHT22;35254;47.990;-1.608;2023-08-31T05:04:16;22.40;59.80
49379;DHT22;35254;47.990;-1.608;2023-08-31T05:06:41;22.40;59.70
49379;DHT22;35254;47.990;-1.608;2023-08-31T05:09:07;22.40;59.80
49379;DHT22;35254;47.990;-1.608;2023-08-31T05:11:33;22.50;59.70
49379;DHT22;35254;47.990;-1.608;2023-08-31T05:13:59;22.40;59.80
49379;DHT22;35254;47.990;-1.608;2023-08-31T05:16:24;22.40;59.70
49379;DHT22;35254;47.990;-1.608;2023-08-31T05:18:50;22.40;59.80
49379;DHT22;35254;47.990;-1.608;2023-08-31T05:21:16;22.40;59.80
49379;DHT22;35254;47.990;-1.608;2023-08-31T05:23:41;22.40;59.80
49379;DHT22;35254;47.990;-1.608;2023-08-31T05:26:07;22.40;59.70
49379;DHT22;35254;47.990;-1.608;2023-08-31T05:28:32;22.40;59.80
49379;DHT22;35254;47.990;-1.608;2023-08-31T05:31:01;22.40;59.60
49379;DHT22;35254;47.990;-1.608;2023-08-31T05:33:28;22.40;59.70
49379;DHT22;35254;47.990;-1.608;2023-08-31T05:35:55;22.40;59.60
49379;DHT22;35254;47.990;-1.608;2023-08-31T05:38:21;22.40;59.60
49379;DHT22;35254;47.990;-1.608;2023-08-31T05:40:46;22.40;59.60
49379;DHT22;35254;47.990;-1.608;2023-08-31T05:43:13;22.40;59.50
49379;DHT22;35254;47.990;-1.608;2023-08-31T05:45:39;22.40;59.60
49379;DHT22;35254;47.990;-1.608;2023-08-31T05:48:04;22.40;59.60
49379;DHT22;35254;47.990;-1.608;2023-08-31T05:50:30;22.40;59.60
49379;DHT22;35254;47.990;-1.608;2023-08-31T05:52:56;22.30;59.60
49379;DHT22;35254;47.990;-1.608;2023-08-31T05:55:22;22.40;59.60
49379;DHT22;35254;47.990;-1.608;2023-08-31T05:57:48;22.40;59.70
49379;DHT22;35254;47.990;-1.608;2023-08-31T06:00:14;22.30;59.70
49379;DHT22;35254;47.990;-1.608;2023-08-31T06:02:39;22.30;59.70
49379;DHT22;35254;47.990;-1.608;2023-08-31T06:05:05;22.40;59.70
49379;DHT22;35254;47.990;-1.608;2023-08-31T06:07:31;22.30;59.90
49379;DHT22;35254;47.990;-1.608;2023-08-31T06:09:57;22.30;59.80
49379;DHT22;35254;47.990;-1.608;2023-08-31T06:12:23;22.30;59.90
49379;DHT22;35254;47.990;-1.608;2023-08-31T06:14:49;22.30;59.90
49379;DHT22;35254;47.990;-1.608;2023-08-31T06:17:14;22.30;60.00
49379;DHT22;35254;47.990;-1.608;2023-08-31T06:19:41;22.30;59.80
49379;DHT22;35254;47.990;-1.608;2023-08-31T06:22:07;22.40;60.20
49379;DHT22;35254;47.990;-1.608;2023-08-31T06:24:32;22.40;60.40
49379;DHT22;35254;47.990;-1.608;2023-08-31T06:26:59;22.40;60.50
49379;DHT22;35254;47.990;-1.608;2023-08-31T06:29:25;22.40;63.60
49379;DHT22;35254;47.990;-1.608;2023-08-31T06:31:50;22.40;61.40
49379;DHT22;35254;47.990;-1.608;2023-08-31T06:34:16;22.40;61.50
49379;DHT22;35254;47.990;-1.608;2023-08-31T06:36:42;22.40;61.10
49379;DHT22;35254;47.990;-1.608;2023-08-31T06:39:07;22.40;61.10
49379;DHT22;35254;47.990;-1.608;2023-08-31T06:41:33;22.40;61.40
49379;DHT22;35254;47.990;-1.608;2023-08-31T06:43:59;22.40;62.50
49379;DHT22;35254;47.990;-1.608;2023-08-31T06:46:25;22.40;61.70
49379;DHT22;35254;47.990;-1.608;2023-08-31T06:48:50;22.40;61.80
49379;DHT22;35254;47.990;-1.608;2023-08-31T06:51:16;22.40;61.60
49379;DHT22;35254;47.990;-1.608;2023-08-31T06:53:43;22.40;61.30
49379;DHT22;35254;47.990;-1.608;2023-08-31T06:56:09;22.40;61.40
49379;DHT22;35254;47.990;-1.608;2023-08-31T06:58:34;22.40;61.40
49379;DHT22;35254;47.990;-1.608;2023-08-31T07:01:00;22.30;61.50
49379;DHT22;35254;47.990;-1.608;2023-08-31T07:03:26;22.40;61.70
49379;DHT22;35254;47.990;-1.608;2023-08-31T07:05:52;22.40;61.90
49379;DHT22;35254;47.990;-1.608;2023-08-31T07:08:18;22.40;61.80
49379;DHT22;35254;47.990;-1.608;2023-08-31T07:10:43;22.40;61.80
49379;DHT22;35254;47.990;-1.608;2023-08-31T07:13:10;22.40;62.20
49379;DHT22;35254;47.990;-1.608;2023-08-31T07:15:35;22.40;62.10
49379;DHT22;35254;47.990;-1.608;2023-08-31T07:18:01;22.40;62.20
49379;DHT22;35254;47.990;-1.608;2023-08-31T07:20:27;22.40;62.30
49379;DHT22;35254;47.990;-1.608;2023-08-31T07:22:52;22.40;62.30
49379;DHT22;35254;47.990;-1.608;2023-08-31T07:25:18;22.40;62.40
49379;DHT22;35254;47.990;-1.608;2023-08-31T07:27:43;22.40;62.40
49379;DHT22;35254;47.990;-1.608;2023-08-31T07:30:09;22.40;62.40
49379;DHT22;35254;47.990;-1.608;2023-08-31T07:32:35;22.50;62.50
49379;DHT22;35254;47.990;-1.608;2023-08-31T07:35:01;22.50;62.30
49379;DHT22;35254;47.990;-1.608;2023-08-31T07:37:30;22.40;62.40
49379;DHT22;35254;47.990;-1.608;2023-08-31T07:39:55;22.50;62.40
49379;DHT22;35254;47.990;-1.608;2023-08-31T07:42:21;22.50;62.30
49379;DHT22;35254;47.990;-1.608;2023-08-31T07:44:46;22.40;62.30
49379;DHT22;35254;47.990;-1.608;2023-08-31T07:47:12;22.50;62.30
49379;DHT22;35254;47.990;-1.608;2023-08-31T07:49:38;22.50;62.20
49379;DHT22;35254;47.990;-1.608;2023-08-31T07:52:03;22.50;62.10
49379;DHT22;35254;47.990;-1.608;2023-08-31T07:54:30;22.50;62.10
49379;DHT22;35254;47.990;-1.608;2023-08-31T07:56:55;22.50;62.20
49379;DHT22;35254;47.990;-1.608;2023-08-31T07:59:21;22.50;62.20
49379;DHT22;35254;47.990;-1.608;2023-08-31T08:01:48;22.50;62.20
49379;DHT22;35254;47.990;-1.608;2023-08-31T08:04:13;22.50;62.30
49379;DHT22;35254;47.990;-1.608;2023-08-31T08:06:39;22.50;62.40
49379;DHT22;35254;47.990;-1.608;2023-08-31T08:09:05;22.50;62.40
49379;DHT22;35254;47.990;-1.608;2023-08-31T08:11:31;22.50;62.30
49379;DHT22;35254;47.990;-1.608;2023-08-31T08:13:57;22.50;62.30
49379;DHT22;35254;47.990;-1.608;2023-08-31T08:16:22;22.50;62.30
49379;DHT22;35254;47.990;-1.608;2023-08-31T08:18:50;22.50;62.30
49379;DHT22;35254;47.990;-1.608;2023-08-31T08:21:15;22.50;62.30
49379;DHT22;35254;47.990;-1.608;2023-08-31T08:23:41;22.50;62.20
49379;DHT22;35254;47.990;-1.608;2023-08-31T08:26:07;22.50;62.20
49379;DHT22;35254;47.990;-1.608;2023-08-31T08:28:33;22.50;62.40
49379;DHT22;35254;47.990;-1.608;2023-08-31T08:31:01;22.50;62.20
49379;DHT22;35254;47.990;-1.608;2023-08-31T08:33:29;22.50;62.40
49379;DHT22;35254;47.990;-1.608;2023-08-31T08:35:57;22.50;64.20
49379;DHT22;35254;47.990;-1.608;2023-08-31T08:38:23;22.50;63.70
49379;DHT22;35254;47.990;-1.608;2023-08-31T08:40:49;22.50;64.10
49379;DHT22;35254;47.990;-1.608;2023-08-31T08:43:15;22.50;64.10
49379;DHT22;35254;47.990;-1.608;2023-08-31T08:45:42;22.50;64.00
49379;DHT22;35254;47.990;-1.608;2023-08-31T08:48:10;22.50;63.80
49379;DHT22;35254;47.990;-1.608;2023-08-31T08:50:36;22.50;63.90
49379;DHT22;35254;47.990;-1.608;2023-08-31T08:53:03;22.50;63.70
49379;DHT22;35254;47.990;-1.608;2023-08-31T08:55:29;22.50;63.60
49379;DHT22;35254;47.990;-1.608;2023-08-31T08:57:57;22.50;63.90
49379;DHT22;35254;47.990;-1.608;2023-08-31T09:00:23;22.50;64.30
49379;DHT22;35254;47.990;-1.608;2023-08-31T09:02:49;22.50;64.10
49379;DHT22;35254;47.990;-1.608;2023-08-31T09:05:14;22.50;63.70
49379;DHT22;35254;47.990;-1.608;2023-08-31T09:10:37;22.50;63.50
49379;DHT22;35254;47.990;-1.608;2023-08-31T09:13:10;22.60;63.60
49379;DHT22;35254;47.990;-1.608;2023-08-31T09:18:02;22.50;63.60
49379;DHT22;35254;47.990;-1.608;2023-08-31T09:20:28;22.50;63.60
49379;DHT22;35254;47.990;-1.608;2023-08-31T09:22:56;22.50;63.70
49379;DHT22;35254;47.990;-1.608;2023-08-31T09:25:21;22.50;63.60
49379;DHT22;35254;47.990;-1.608;2023-08-31T09:27:48;22.50;63.60
49379;DHT22;35254;47.990;-1.608;2023-08-31T09:30:14;22.60;63.60
49379;DHT22;35254;47.990;-1.608;2023-08-31T09:32:39;22.50;63.60
49379;DHT22;35254;47.990;-1.608;2023-08-31T09:35:11;22.60;63.50
49379;DHT22;35254;47.990;-1.608;2023-08-31T09:37:36;22.60;63.60
49379;DHT22;35254;47.990;-1.608;2023-08-31T09:40:03;22.60;63.50
49379;DHT22;35254;47.990;-1.608;2023-08-31T09:42:38;22.60;63.50
49379;DHT22;35254;47.990;-1.608;2023-08-31T09:45:04;22.60;63.60
49379;DHT22;35254;47.990;-1.608;2023-08-31T09:47:30;22.60;63.50
49379;DHT22;35254;47.990;-1.608;2023-08-31T09:49:57;22.60;63.70
49379;DHT22;35254;47.990;-1.608;2023-08-31T09:52:24;22.60;63.70
49379;DHT22;35254;47.990;-1.608;2023-08-31T09:54:51;22.60;63.60
49379;DHT22;35254;47.990;-1.608;2023-08-31T09:57:20;22.60;63.70
49379;DHT22;35254;47.990;-1.608;2023-08-31T09:59:46;22.50;63.60
49379;DHT22;35254;47.990;-1.608;2023-08-31T10:02:13;22.60;63.60
49379;DHT22;35254;47.990;-1.608;2023-08-31T10:04:40;22.50;63.70
49379;DHT22;35254;47.990;-1.608;2023-08-31T10:07:07;22.60;63.80
49379;DHT22;35254;47.990;-1.608;2023-08-31T10:09:35;22.60;63.80
49379;DHT22;35254;47.990;-1.608;2023-08-31T10:12:04;22.60;63.90
49379;DHT22;35254;47.990;-1.608;2023-08-31T10:14:30;22.60;63.80
49379;DHT22;35254;47.990;-1.608;2023-08-31T10:16:56;22.60;63.80
49379;DHT22;35254;47.990;-1.608;2023-08-31T10:19:23;22.50;64.00
49379;DHT22;35254;47.990;-1.608;2023-08-31T10:21:49;22.60;63.70
49379;DHT22;35254;47.990;-1.608;2023-08-31T10:24:15;22.60;63.90
49379;DHT22;35254;47.990;-1.608;2023-08-31T10:26:40;22.50;63.70
49379;DHT22;35254;47.990;-1.608;2023-08-31T10:29:06;22.50;63.90
49379;DHT22;35254;47.990;-1.608;2023-08-31T10:31:50;22.60;63.90
49379;DHT22;35254;47.990;-1.608;2023-08-31T10:34:15;22.60;63.90
49379;DHT22;35254;47.990;-1.608;2023-08-31T10:36:43;22.60;63.90
49379;DHT22;35254;47.990;-1.608;2023-08-31T10:39:17;22.50;63.90
49379;DHT22;35254;47.990;-1.608;2023-08-31T10:41:55;22.50;64.00
49379;DHT22;35254;47.990;-1.608;2023-08-31T10:46:49;22.60;63.90
49379;DHT22;35254;47.990;-1.608;2023-08-31T10:49:16;22.60;63.90
49379;DHT22;35254;47.990;-1.608;2023-08-31T10:51:49;22.60;63.90
49379;DHT22;35254;47.990;-1.608;2023-08-31T10:54:25;22.60;64.00
49379;DHT22;35254;47.990;-1.608;2023-08-31T10:59:21;22.60;64.40
49379;DHT22;35254;47.990;-1.608;2023-08-31T11:02:00;22.60;64.70
49379;DHT22;35254;47.990;-1.608;2023-08-31T11:04:29;22.60;64.40
49379;DHT22;35254;47.990;-1.608;2023-08-31T11:07:18;22.60;64.70
49379;DHT22;35254;47.990;-1.608;2023-08-31T11:09:45;22.60;64.50
49379;DHT22;35254;47.990;-1.608;2023-08-31T11:12:12;22.60;64.60
49379;DHT22;35254;47.990;-1.608;2023-08-31T11:14:39;22.60;64.50
49379;DHT22;35254;47.990;-1.608;2023-08-31T11:17:05;22.60;64.40
49379;DHT22;35254;47.990;-1.608;2023-08-31T11:19:32;22.60;64.30
49379;DHT22;35254;47.990;-1.608;2023-08-31T11:22:01;22.60;64.40
49379;DHT22;35254;47.990;-1.608;2023-08-31T11:24:31;22.60;64.50
49379;DHT22;35254;47.990;-1.608;2023-08-31T11:26:57;22.60;64.50
49379;DHT22;35254;47.990;-1.608;2023-08-31T11:29:23;22.60;64.40
49379;DHT22;35254;47.990;-1.608;2023-08-31T11:31:48;22.60;64.40
49379;DHT22;35254;47.990;-1.608;2023-08-31T11:34:16;22.60;64.70
49379;DHT22;35254;47.990;-1.608;2023-08-31T11:36:43;22.60;64.90
49379;DHT22;35254;47.990;-1.608;2023-08-31T11:39:09;22.60;64.90
49379;DHT22;35254;47.990;-1.608;2023-08-31T11:41:36;22.60;65.00
49379;DHT22;35254;47.990;-1.608;2023-08-31T11:44:07;22.60;65.30
49379;DHT22;35254;47.990;-1.608;2023-08-31T11:46:33;22.60;65.30
49379;DHT22;35254;47.990;-1.608;2023-08-31T11:49:02;22.70;65.20
49379;DHT22;35254;47.990;-1.608;2023-08-31T11:51:30;22.70;65.50
49379;DHT22;35254;47.990;-1.608;2023-08-31T11:53:56;22.70;65.30
49379;DHT22;35254;47.990;-1.608;2023-08-31T11:56:24;22.60;65.50
49379;DHT22;35254;47.990;-1.608;2023-08-31T11:58:51;22.70;65.50
49379;DHT22;35254;47.990;-1.608;2023-08-31T12:01:23;22.70;65.90
49379;DHT22;35254;47.990;-1.608;2023-08-31T12:03:49;22.70;65.90
49379;DHT22;35254;47.990;-1.608;2023-08-31T12:06:16;22.70;66.10
49379;DHT22;35254;47.990;-1.608;2023-08-31T12:08:42;22.70;66.00
49379;DHT22;35254;47.990;-1.608;2023-08-31T12:11:08;22.70;66.10
49379;DHT22;35254;47.990;-1.608;2023-08-31T12:13:34;22.70;66.00
49379;DHT22;35254;47.990;-1.608;2023-08-31T12:15:59;22.70;65.80
49379;DHT22;35254;47.990;-1.608;2023-08-31T12:18:29;22.70;65.80
49379;DHT22;35254;47.990;-1.608;2023-08-31T12:20:57;22.70;65.70
49379;DHT22;35254;47.990;-1.608;2023-08-31T12:23:23;22.70;65.50
49379;DHT22;35254;47.990;-1.608;2023-08-31T12:25:50;22.70;65.70
49379;DHT22;35254;47.990;-1.608;2023-08-31T12:28:21;22.70;65.50
49379;DHT22;35254;47.990;-1.608;2023-08-31T12:30:54;22.70;65.40
49379;DHT22;35254;47.990;-1.608;2023-08-31T12:33:22;22.70;65.40
49379;DHT22;35254;47.990;-1.608;2023-08-31T12:35:48;22.70;65.30
49379;DHT22;35254;47.990;-1.608;2023-08-31T12:38:13;22.70;65.70
49379;DHT22;35254;47.990;-1.608;2023-08-31T12:40:39;22.70;65.70
49379;DHT22;35254;47.990;-1.608;2023-08-31T12:43:05;22.80;65.60
49379;DHT22;35254;47.990;-1.608;2023-08-31T12:45:31;22.70;65.70
49379;DHT22;35254;47.990;-1.608;2023-08-31T12:47:58;22.80;65.50
49379;DHT22;35254;47.990;-1.608;2023-08-31T12:50:24;22.70;66.10
49379;DHT22;35254;47.990;-1.608;2023-08-31T12:52:49;22.70;65.80
49379;DHT22;35254;47.990;-1.608;2023-08-31T12:55:16;22.80;66.10
49379;DHT22;35254;47.990;-1.608;2023-08-31T12:57:42;22.80;66.40
49379;DHT22;35254;47.990;-1.608;2023-08-31T13:00:09;22.80;66.20
49379;DHT22;35254;47.990;-1.608;2023-08-31T13:02:42;22.80;66.40
49379;DHT22;35254;47.990;-1.608;2023-08-31T13:05:09;22.80;66.10
49379;DHT22;35254;47.990;-1.608;2023-08-31T13:07:38;22.80;66.30
49379;DHT22;35254;47.990;-1.608;2023-08-31T13:10:05;22.80;66.40
49379;DHT22;35254;47.990;-1.608;2023-08-31T13:12:31;23.00;69.90
49379;DHT22;35254;47.990;-1.608;2023-08-31T13:14:58;23.10;70.50
49379;DHT22;35254;47.990;-1.608;2023-08-31T13:17:24;23.20;67.30
49379;DHT22;35254;47.990;-1.608;2023-08-31T13:19:53;23.00;66.70
49379;DHT22;35254;47.990;-1.608;2023-08-31T13:22:19;22.90;66.60
49379;DHT22;35254;47.990;-1.608;2023-08-31T13:24:45;22.90;66.50
49379;DHT22;35254;47.990;-1.608;2023-08-31T13:27:11;22.90;66.40
49379;DHT22;35254;47.990;-1.608;2023-08-31T13:29:36;22.90;66.20
49379;DHT22;35254;47.990;-1.608;2023-08-31T13:32:02;22.90;66.00
49379;DHT22;35254;47.990;-1.608;2023-08-31T13:34:28;22.90;65.80
49379;DHT22;35254;47.990;-1.608;2023-08-31T13:36:55;22.90;65.70
49379;DHT22;35254;47.990;-1.608;2023-08-31T13:39:21;22.90;65.60
49379;DHT22;35254;47.990;-1.608;2023-08-31T13:41:50;22.90;65.60
49379;DHT22;35254;47.990;-1.608;2023-08-31T13:44:17;22.90;65.60
49379;DHT22;35254;47.990;-1.608;2023-08-31T13:46:43;22.90;65.60
49379;DHT22;35254;47.990;-1.608;2023-08-31T13:49:08;22.90;65.50
49379;DHT22;35254;47.990;-1.608;2023-08-31T13:51:34;22.90;65.60
49379;DHT22;35254;47.990;-1.608;2023-08-31T13:54:02;22.90;65.60
49379;DHT22;35254;47.990;-1.608;2023-08-31T13:56:29;22.90;65.60
49379;DHT22;35254;47.990;-1.608;2023-08-31T13:58:55;22.90;65.60
49379;DHT22;35254;47.990;-1.608;2023-08-31T14:01:20;22.90;65.60
49379;DHT22;35254;47.990;-1.608;2023-08-31T14:03:46;22.90;65.60
49379;DHT22;35254;47.990;-1.608;2023-08-31T14:06:12;22.90;65.50
49379;DHT22;35254;47.990;-1.608;2023-08-31T14:08:40;22.90;65.50
49379;DHT22;35254;47.990;-1.608;2023-08-31T14:11:06;22.90;65.40
49379;DHT22;35254;47.990;-1.608;2023-08-31T14:13:31;23.00;65.40
49379;DHT22;35254;47.990;-1.608;2023-08-31T14:15:57;23.00;65.30
49379;DHT22;35254;47.990;-1.608;2023-08-31T14:18:24;23.00;65.30
49379;DHT22;35254;47.990;-1.608;2023-08-31T14:20:51;23.00;65.30
49379;DHT22;35254;47.990;-1.608;2023-08-31T14:23:16;23.00;65.30
49379;DHT22;35254;47.990;-1.608;2023-08-31T14:25:42;23.00;65.30
49379;DHT22;35254;47.990;-1.608;2023-08-31T14:28:08;23.00;65.40
49379;DHT22;35254;47.990;-1.608;2023-08-31T14:30:35;23.00;65.40
49379;DHT22;35254;47.990;-1.608;2023-08-31T14:33:02;23.00;65.50
49379;DHT22;35254;47.990;-1.608;2023-08-31T14:35:27;23.00;65.50
49379;DHT22;35254;47.990;-1.608;2023-08-31T14:37:53;23.00;65.60
49379;DHT22;35254;47.990;-1.608;2023-08-31T14:40:19;23.00;65.50
49379;DHT22;35254;47.990;-1.608;2023-08-31T14:42:44;23.00;65.50
49379;DHT22;35254;47.990;-1.608;2023-08-31T14:45:10;23.00;65.40
49379;DHT22;35254;47.990;-1.608;2023-08-31T14:47:36;22.90;65.40
49379;DHT22;35254;47.990;-1.608;2023-08-31T14:50:02;23.00;65.40
49379;DHT22;35254;47.990;-1.608;2023-08-31T14:52:30;23.00;65.40
49379;DHT22;35254;47.990;-1.608;2023-08-31T14:54:55;23.00;65.40
49379;DHT22;35254;47.990;-1.608;2023-08-31T14:57:22;23.00;65.40
49379;DHT22;35254;47.990;-1.608;2023-08-31T14:59:47;23.00;65.40
49379;DHT22;35254;47.990;-1.608;2023-08-31T15:02:13;23.00;65.30
49379;DHT22;35254;47.990;-1.608;2023-08-31T15:04:41;23.00;65.40
49379;DHT22;35254;47.990;-1.608;2023-08-31T15:07:06;23.00;65.30
49379;DHT22;35254;47.990;-1.608;2023-08-31T15:09:32;23.00;65.40
49379;DHT22;35254;47.990;-1.608;2023-08-31T15:11:58;23.00;65.40
49379;DHT22;35254;47.990;-1.608;2023-08-31T15:14:23;23.00;65.40
49379;DHT22;35254;47.990;-1.608;2023-08-31T15:16:49;23.10;65.40
49379;DHT22;35254;47.990;-1.608;2023-08-31T15:19:15;23.00;65.40
49379;DHT22;35254;47.990;-1.608;2023-08-31T15:21:40;23.00;65.40
49379;DHT22;35254;47.990;-1.608;2023-08-31T15:24:06;23.00;65.30
49379;DHT22;35254;47.990;-1.608;2023-08-31T15:26:31;23.10;65.30
49379;DHT22;35254;47.990;-1.608;2023-08-31T15:28:58;23.00;65.40
49379;DHT22;35254;47.990;-1.608;2023-08-31T15:31:24;23.00;65.40
49379;DHT22;35254;47.990;-1.608;2023-08-31T15:33:50;23.00;65.40